Time;durP1;ratioP1;P1;durP2;ratioP2;P2;SDS_P1;SDS_P2;PMS_P1;PMS_P2;Temp;Humidity;BMP_temperature;BMP_pressure;BME280_temperature;BME280_humidity;BME280_pressure;Samples;Min_cycle;Max_cycle;Signal;HPM_P1;HPM_P2
2022/06/21 00:02:15;;;;;;;23.50;6.45;;;;;;;16.54;67.71;98450.16;4923537;29;20051;-96
2022/06/21 00:04:41;;;;;;;23.83;6.20;;;;;;;16.44;68.23;98435.03;4941496;29;20043;-84
2022/06/21 00:07:17;;;;;;;23.85;6.55;;;;;;;16.85;68.21;98504.22;4955550;29;20038;-84
2022/06/21 00:09:43;;;;;;;16.98;6.50;;;;;;;16.73;68.48;98496.13;4955425;29;20047;-84
2022/06/21 00:12:13;;;;;;;24.37;7.23;;;;;;;16.81;68.93;98519.13;4954733;28;20039;-84
2022/06/21 00:14:40;;;;;;;23.60;6.60;;;;;;;16.66;68.77;98507.88;4937665;29;20050;-84
2022/06/21 00:17:08;;;;;;;;;;;;;;;16.67;68.91;98520.47;4938173;29;20046;-84
2022/06/21 00:19:37;;;;;;;27.83;7.78;;;;;;;16.61;68.75;98524.72;4955192;29;19926;-84
2022/06/21 00:22:04;;;;;;;25.63;7.90;;;;;;;16.41;69.11;98490.16;4937188;29;20039;-84
2022/06/21 00:24:30;;;;;;;25.30;8.35;;;;;;;16.51;69.51;98505.28;4938405;29;20050;-84
2022/06/21 00:26:57;;;;;;;37.33;8.45;;;;;;;16.41;69.15;98490.16;4937784;29;20043;-84
2022/06/21 00:29:23;;;;;;;18.43;7.67;;;;;;;16.53;69.16;98498.22;4955057;28;20047;-84
2022/06/21 00:31:49;;;;;;;26.98;7.18;;;;;;;16.49;69.36;98477.25;4955099;29;20469;-84
2022/06/21 00:34:19;;;;;;;19.02;7.20;;;;;;;16.59;69.11;98482.16;4937150;29;20493;-84
2022/06/21 00:36:46;;;;;;;29.90;7.78;;;;;;;16.63;69.58;98491.25;4940358;29;20493;-83
2022/06/21 00:39:15;;;;;;;22.73;7.30;;;;;;;16.53;70.08;98483.63;4937435;29;20077;-83
2022/06/21 00:41:43;;;;;;;20.58;7.35;;;;;;;16.39;70.06;98459.38;4937437;29;20420;-85
2022/06/21 00:44:23;;;;;;;32.53;8.05;;;;;;;16.53;70.63;98478.91;4953288;29;20047;-85
2022/06/21 00:47:01;;;;;;;20.98;7.35;;;;;;;16.49;70.69;98480.00;4936981;29;20073;-85
2022/06/21 00:49:32;;;;;;;29.15;8.48;;;;;;;16.44;70.79;98468.13;4954640;29;20107;-85
2022/06/21 00:52:17;;;;;;;34.92;8.57;;;;;;;16.42;70.78;98458.63;4953247;29;20075;-85
2022/06/21 00:54:54;;;;;;;22.05;7.90;;;;;;;16.43;70.53;98468.53;4954380;29;20043;-84
2022/06/21 00:57:28;;;;;;;20.35;8.00;;;;;;;16.40;71.01;98461.78;4933619;29;20102;-85
2022/06/21 00:59:58;;;;;;;17.90;8.05;;;;;;;16.37;70.81;98447.94;4927066;29;20107;-85
2022/06/21 01:02:35;;;;;;;30.80;8.68;;;;;;;16.47;70.32;98468.56;4921421;29;20054;-85
2022/06/21 01:05:03;;;;;;;25.48;8.77;;;;;;;16.49;70.24;98474.50;4937364;29;20059;-85
2022/06/21 01:07:32;;;;;;;26.33;8.65;;;;;;;16.31;70.60;98463.22;4954038;29;20065;-85
2022/06/21 01:10:05;;;;;;;29.20;8.85;;;;;;;16.32;70.78;98476.63;4954223;29;20130;-85
2022/06/21 01:12:38;;;;;;;30.65;8.95;;;;;;;16.16;70.83;98468.53;4920515;29;20564;-85
2022/06/21 01:15:18;;;;;;;25.02;8.00;;;;;;;16.31;71.48;98496.31;4952916;29;20047;-85
2022/06/21 01:17:48;;;;;;;21.98;8.13;;;;;;;16.31;71.33;98493.56;4936409;29;20042;-85
2022/06/21 01:20:26;;;;;;;22.45;8.70;;;;;;;16.29;71.63;98474.63;4936766;29;20416;-84
2022/06/21 01:23:37;;;;;;;24.42;8.73;;;;;;;16.40;71.68;98478.34;4953382;28;20039;-85
2022/06/21 01:26:57;;;;;;;26.98;8.93;;;;;;;16.40;71.45;98461.00;4953532;29;20043;-85
2022/06/21 01:29:27;;;;;;;28.98;8.40;;;;;;;16.42;71.87;98447.59;4875378;29;20037;-85
2022/06/21 01:32:00;;;;;;;23.15;8.73;;;;;;;16.44;71.10;98439.75;4875535;29;20139;-85
2022/06/21 01:34:28;;;;;;;24.65;8.93;;;;;;;16.48;71.06;98432.31;4875835;29;20503;-85
2022/06/21 01:37:04;;;;;;;32.28;9.43;;;;;;;16.49;71.13;98417.38;4875706;29;20546;-85
2022/06/21 01:39:47;;;;;;;19.63;7.15;;;;;;;16.19;71.18;98396.09;4875749;29;20777;-85
2022/06/21 01:44:48;;;;;;;23.20;8.60;;;;;;;16.19;72.15;98401.63;4883142;29;20052;-85
2022/06/21 01:47:22;;;;;;;31.17;9.70;;;;;;;16.24;72.82;98397.72;4891478;29;20068;-85
2022/06/21 01:50:01;;;;;;;26.75;7.90;;;;;;;16.13;72.74;98372.78;4875326;29;20049;-85
2022/06/21 01:52:34;;;;;;;18.98;8.20;;;;;;;16.33;73.02;98391.94;4844891;29;20033;-85
2022/06/21 01:55:06;;;;;;;31.17;8.65;;;;;;;16.32;72.93;98374.56;4881011;29;20065;-85
2022/06/21 01:57:32;;;;;;;28.65;8.85;;;;;;;16.42;73.12;98379.47;4876890;29;20060;-84
2022/06/21 02:00:03;;;;;;;24.70;8.55;;;;;;;16.33;73.33;98372.63;4875495;29;20296;-85
2022/06/21 02:02:38;;;;;;;23.23;8.23;;;;;;;16.26;73.00;98342.19;4887178;29;20068;-86
2022/06/21 02:05:24;;;;;;;25.38;8.07;;;;;;;16.57;73.32;98396.19;4953125;29;20050;-84
2022/06/21 02:07:56;;;;;;;27.17;8.23;;;;;;;16.44;73.37;98377.09;4967936;28;20047;-84
2022/06/21 02:10:25;;;;;;;25.08;8.20;;;;;;;16.60;73.68;98403.72;4935860;29;20039;-84
2022/06/21 02:13:00;;;;;;;22.10;7.75;;;;;;;16.55;73.72;98396.53;4953221;29;20047;-85
2022/06/21 02:15:55;;;;;;;25.48;8.00;;;;;;;16.51;74.34;98417.00;4939364;29;20051;-84
2022/06/21 02:18:24;;;;;;;25.48;8.52;;;;;;;16.32;74.42;98393.88;4935549;29;20528;-84
2022/06/21 02:21:00;;;;;;;32.42;9.90;;;;;;;16.36;74.21;98405.78;4952177;29;20555;-84
2022/06/21 02:23:26;;;;;;;30.85;10.73;;;;;;;16.28;74.15;98406.84;4939366;29;20543;-85
2022/06/21 02:25:55;;;;;;;24.80;9.40;;;;;;;16.45;74.54;98424.78;4953308;29;20047;-84
2022/06/21 02:28:22;;;;;;;28.20;9.93;;;;;;;16.14;74.21;98385.38;4951819;29;20047;-85
2022/06/21 02:30:50;;;;;;;;;;;;;;;16.41;74.43;98423.94;4953428;29;20035;-85
2022/06/21 02:33:21;;;;;;;28.63;9.30;;;;;;;16.44;74.39;98423.22;4951627;28;19922;-84
2022/06/21 02:35:52;;;;;;;24.83;9.32;;;;;;;16.45;74.74;98431.09;4955585;28;20051;-84
2022/06/21 02:38:25;;;;;;;28.70;8.70;;;;;;;16.32;74.35;98404.13;4941329;29;20520;-86
2022/06/21 02:41:09;;;;;;;20.83;8.88;;;;;;;16.49;74.79;98444.16;4958856;29;20055;-86
2022/06/21 02:43:43;;;;;;;22.13;8.77;;;;;;;16.38;75.27;98424.69;4943332;29;20035;-87
2022/06/21 02:46:18;;;;;;;29.73;9.13;;;;;;;16.54;75.84;98452.91;4958828;28;20150;-87
2022/06/21 02:48:56;;;;;;;23.52;9.60;;;;;;;16.31;75.66;98433.66;4956764;29;20058;-85
2022/06/21 02:51:30;;;;;;;23.35;8.70;;;;;;;16.38;75.71;98449.53;4938706;29;20098;-86
2022/06/21 02:54:15;;;;;;;23.20;9.57;;;;;;;16.36;75.93;98449.13;4956875;29;20133;-85
2022/06/21 02:56:52;;;;;;;17.30;8.57;;;;;;;16.40;76.22;98442.47;4956593;29;20166;-84
2022/06/21 02:59:18;;;;;;;23.33;9.07;;;;;;;16.47;76.45;98460.28;4939605;29;20042;-86
2022/06/21 03:01:48;;;;;;;22.83;8.47;;;;;;;16.41;76.30;98440.50;4955843;29;20078;-86
2022/06/21 03:04:22;;;;;;;25.45;10.20;;;;;;;16.52;76.48;98443.41;4940069;29;20796;-85
2022/06/21 03:06:50;;;;;;;24.40;9.43;;;;;;;16.47;76.72;98427.97;4923364;29;20117;-84
2022/06/21 03:09:20;;;;;;;33.60;9.77;;;;;;;16.60;77.29;98447.84;4937937;29;20501;-86
2022/06/21 03:11:49;;;;;;;24.40;10.20;;;;;;;16.62;77.21;98446.31;4938678;29;20043;-86
2022/06/21 03:14:21;;;;;;;32.15;9.63;;;;;;;16.66;77.30;98447.16;4941028;29;20046;-86
2022/06/21 03:16:48;;;;;;;24.80;9.82;;;;;;;16.52;77.57;98429.59;4956409;29;20516;-85
2022/06/21 03:19:24;;;;;;;23.33;10.10;;;;;;;16.64;77.51;98446.72;4971393;28;20130;-86
2022/06/21 03:21:52;;;;;;;25.35;10.82;;;;;;;16.43;77.58;98419.66;4955799;28;20047;-86
2022/06/21 03:24:22;;;;;;;30.35;11.40;;;;;;;16.43;77.49;98419.66;4938581;29;20047;-85
2022/06/21 03:27:00;;;;;;;27.95;9.60;;;;;;;16.42;77.17;98406.22;4938185;29;20445;-87
2022/06/21 03:29:28;;;;;;;28.45;9.77;;;;;;;16.43;77.05;98408.63;4939148;29;20081;-86
2022/06/21 03:31:55;;;;;;;23.80;10.07;;;;;;;16.47;77.37;98416.16;4952882;28;20031;-85
2022/06/21 03:34:24;;;;;;;24.25;9.80;;;;;;;16.35;77.39;98393.13;4956230;29;20147;-86
2022/06/21 03:36:51;;;;;;;26.85;9.73;;;;;;;16.51;76.56;98406.75;4955602;29;20521;-85
2022/06/21 03:42:13;;;;;;;25.80;10.05;;;;;;;16.45;76.92;98394.44;4955195;28;20052;-85
2022/06/21 03:44:45;;;;;;;30.52;11.23;;;;;;;16.61;77.46;98417.13;4953931;28;20548;-86
2022/06/21 03:47:17;;;;;;;27.00;10.38;;;;;;;16.55;77.51;98393.78;4955380;29;20051;-86
2022/06/21 03:49:54;;;;;;;31.20;11.02;;;;;;;16.70;76.83;98410.53;4938538;29;20047;-85
2022/06/21 03:52:44;;;;;;;27.58;11.52;;;;;;;16.58;77.35;98395.00;4923603;29;20149;-86
2022/06/21 03:55:22;;;;;;;26.45;10.98;;;;;;;16.73;77.28;98407.81;4955321;29;20054;-87
2022/06/21 03:58:14;;;;;;;31.33;10.45;;;;;;;16.72;77.42;98403.47;4955740;29;20188;-86
2022/06/21 04:01:15;;;;;;;19.52;10.23;;;;;;;16.85;77.49;98404.03;4955390;29;20074;-86
2022/06/21 04:04:19;;;;;;;20.85;10.52;;;;;;;16.71;77.82;98365.19;4840672;29;20052;-84
2022/06/21 04:06:58;;;;;;;25.88;10.55;;;;;;;16.89;76.71;98388.31;4822060;29;20131;-86
2022/06/21 04:09:38;;;;;;;23.42;10.35;;;;;;;17.04;76.57;98398.31;4854467;29;20053;-84
2022/06/21 04:12:21;;;;;;;22.80;10.05;;;;;;;17.02;74.00;98400.69;4858170;29;20045;-85
2022/06/21 04:15:22;;;;;;;29.73;10.30;;;;;;;17.06;74.21;98386.91;4858228;29;20611;-84
2022/06/21 04:17:56;;;;;;;21.83;8.93;;;;;;;16.95;71.86;98366.66;4837531;29;20060;-87
2022/06/21 04:20:41;;;;;;;19.23;9.40;;;;;;;17.10;73.69;98396.81;4842671;29;20065;-85
2022/06/21 04:23:20;;;;;;;25.92;10.13;;;;;;;17.12;73.57;98391.72;4858446;29;20084;-86
2022/06/21 04:25:52;;;;;;;21.48;10.18;;;;;;;17.19;73.32;98390.22;4857607;29;20109;-86
2022/06/21 04:28:24;;;;;;;32.20;10.90;;;;;;;17.23;72.35;98396.56;4858007;29;20136;-85
2022/06/21 04:31:00;;;;;;;23.85;11.38;;;;;;;17.28;72.82;98391.47;4857419;29;20642;-86
2022/06/21 04:33:40;;;;;;;26.70;11.63;;;;;;;17.32;72.65;98388.75;4841472;29;20057;-85
2022/06/21 04:36:12;;;;;;;28.05;11.52;;;;;;;17.36;70.75;98386.81;4841630;29;20128;-84
2022/06/21 04:38:44;;;;;;;27.85;11.73;;;;;;;17.34;71.19;98380.88;4857966;29;20190;-84
2022/06/21 04:41:21;;;;;;;31.30;11.32;;;;;;;17.34;71.29;98375.34;4916361;29;20043;-85
2022/06/21 04:43:54;;;;;;;25.20;11.40;;;;;;;17.32;73.06;98364.69;4934840;29;20047;-85
2022/06/21 04:46:34;;;;;;;31.40;12.55;;;;;;;17.32;73.27;98361.91;4934364;29;20284;-83
2022/06/21 04:49:45;;;;;;;31.85;12.38;;;;;;;17.42;71.93;98354.09;4935007;29;20106;-84
2022/06/21 04:52:27;;;;;;;31.00;12.82;;;;;;;17.35;73.33;98341.00;4931597;29;20429;-85
2022/06/21 04:54:53;;;;;;;38.50;12.85;;;;;;;17.33;73.23;98335.88;4933791;29;20619;-84
2022/06/21 04:57:24;;;;;;;25.77;11.43;;;;;;;17.46;71.44;98350.19;4934413;29;20035;-85
2022/06/21 05:00:04;;;;;;;25.33;11.48;;;;;;;17.58;72.82;98362.91;4917482;29;20453;-84
2022/06/21 05:02:39;;;;;;;23.20;10.55;;;;;;;17.60;71.08;98350.28;4938609;29;20123;-82
2022/06/21 05:05:11;;;;;;;31.90;12.30;;;;;;;17.70;71.88;98342.47;4951708;29;20467;-85
2022/06/21 05:07:45;;;;;;;28.42;11.27;;;;;;;17.78;70.91;98346.88;4953443;29;20086;-84
2022/06/21 05:10:17;;;;;;;25.95;11.60;;;;;;;17.90;71.62;98345.78;4952739;29;20043;-84
2022/06/21 05:12:45;;;;;;;31.65;12.25;;;;;;;17.98;71.02;98336.34;4953773;28;20039;-86
2022/06/21 05:15:19;;;;;;;33.50;11.43;;;;;;;17.86;70.81;98328.41;4954053;29;20050;-85
2022/06/21 05:17:49;;;;;;;32.20;13.65;;;;;;;17.86;71.86;98334.72;4952998;28;20063;-85
2022/06/21 05:20:21;;;;;;;32.00;12.23;;;;;;;17.91;70.81;98337.09;4953569;29;20039;-85
2022/06/21 05:22:53;;;;;;;30.75;12.65;;;;;;;18.06;72.10;98355.38;4949910;29;20051;-85
2022/06/21 05:25:39;;;;;;;30.98;12.55;;;;;;;18.18;69.77;98362.56;4954092;28;20134;-86
2022/06/21 05:28:12;;;;;;;29.63;12.27;;;;;;;18.20;71.61;98354.66;4951868;29;20057;-85
2022/06/21 05:30:44;;;;;;;26.25;10.60;;;;;;;18.37;69.33;98355.91;4936030;29;20138;-86
2022/06/21 05:33:44;;;;;;;21.80;9.75;;;;;;;18.42;67.41;98357.53;4926179;29;20051;-87
2022/06/21 05:36:15;;;;;;;25.85;11.13;;;;;;;18.52;69.53;98363.09;4953194;28;20095;-85
2022/06/21 05:38:52;;;;;;;23.02;10.35;;;;;;;18.52;69.37;98352.03;4952808;29;20513;-86
2022/06/21 05:41:31;;;;;;;25.35;10.07;;;;;;;18.49;69.75;98347.28;4952335;29;20039;-86
2022/06/21 05:44:21;;;;;;;25.05;10.57;;;;;;;18.39;68.66;98331.44;4953473;29;20122;-86
2022/06/21 05:46:53;;;;;;;23.85;9.48;;;;;;;18.53;68.28;98353.63;4953395;29;20060;-86
2022/06/21 05:49:26;;;;;;;19.92;10.02;;;;;;;18.52;67.30;98363.09;4952235;29;20093;-84
2022/06/21 05:51:54;;;;;;;22.23;11.23;;;;;;;18.35;68.74;98322.31;4936190;29;20043;-85
2022/06/21 05:54:26;;;;;;;21.27;10.10;;;;;;;18.49;67.82;98344.50;4936366;29;20141;-86
2022/06/21 05:56:52;;;;;;;23.38;10.43;;;;;;;18.58;68.68;98360.78;4953550;29;20086;-86
2022/06/21 05:59:20;;;;;;;15.57;8.20;;;;;;;18.64;66.81;98370.28;4919563;29;20047;-85
2022/06/21 06:01:56;;;;;;;19.02;7.85;;;;;;;18.51;67.08;98335.84;4947378;29;20130;-85
2022/06/21 06:04:37;;;;;;;18.50;8.63;;;;;;;18.63;68.33;98338.22;4950324;29;20174;-85
2022/06/21 06:07:04;;;;;;;16.08;8.20;;;;;;;18.96;66.19;98342.69;4952312;29;20568;-86
2022/06/21 06:09:40;;;;;;;15.85;8.25;;;;;;;18.97;65.19;98322.16;4952726;29;20039;-86
2022/06/21 06:12:19;;;;;;;22.67;9.57;;;;;;;19.20;65.66;98348.66;4961743;28;20070;-84
2022/06/21 06:14:58;;;;;;;19.73;8.00;;;;;;;19.12;63.79;98322.16;4950668;29;20102;-85
2022/06/21 06:17:45;;;;;;;27.23;8.23;;;;;;;19.41;63.74;98340.38;4934148;29;20041;-84
2022/06/21 06:20:26;;;;;;;19.23;9.30;;;;;;;19.48;62.21;98343.16;4933395;29;20055;-84
2022/06/21 06:23:25;;;;;;;21.00;9.20;;;;;;;19.38;64.43;98349.47;4951566;29;20134;-88
2022/06/21 06:26:06;;;;;;;21.25;9.63;;;;;;;19.17;64.64;98349.44;4932133;29;20055;-87
2022/06/21 06:28:40;;;;;;;28.25;10.88;;;;;;;19.11;64.67;98348.28;4947654;29;20047;-88
2022/06/21 06:31:09;;;;;;;22.80;11.73;;;;;;;19.04;66.49;98351.00;4918687;29;20058;-87
2022/06/21 06:33:40;;;;;;;25.40;12.07;;;;;;;19.05;68.28;98347.88;4919157;29;20042;-88
2022/06/21 06:36:14;;;;;;;24.30;11.85;;;;;;;19.05;68.23;98336.78;4952448;29;20093;-88
2022/06/21 06:38:41;;;;;;;26.10;12.80;;;;;;;18.77;68.10;98296.78;4935167;29;20043;-88
2022/06/21 06:41:33;;;;;;;25.15;12.07;;;;;;;19.05;68.17;98349.84;4929745;29;20492;-88
2022/06/21 06:44:03;;;;;;;35.05;12.60;;;;;;;18.84;65.29;98320.13;4940990;29;20052;-85
2022/06/21 06:46:34;;;;;;;65.15;14.73;;;;;;;18.90;68.15;98344.25;4943403;29;20044;-86
2022/06/21 06:49:20;;;;;;;30.58;13.45;;;;;;;18.92;68.11;98343.88;4942460;29;20050;-86
2022/06/21 06:51:57;;;;;;;;;;;;;;;18.87;68.59;98356.13;4944724;29;20142;-87
2022/06/21 06:55:03;;;;;;;21.23;11.88;;;;;;;18.87;68.72;98358.09;4944000;29;19930;-92
2022/06/21 06:57:55;;;;;;;24.45;13.07;;;;;;;18.55;69.01;98311.72;4899877;29;20409;-90
2022/06/21 07:00:27;;;;;;;27.92;12.98;;;;;;;18.82;69.47;98350.97;4924428;29;20044;-85
2022/06/21 07:03:19;;;;;;;37.47;13.85;;;;;;;18.77;69.99;98343.03;4937196;29;20055;-85
2022/06/21 07:06:04;;;;;;;28.75;13.02;;;;;;;18.53;67.94;98325.94;4938582;29;20607;-89
2022/06/21 07:08:42;;;;;;;25.08;11.85;;;;;;;18.74;67.66;98358.47;4941179;29;20039;-88
2022/06/21 07:11:41;;;;;;;31.45;12.27;;;;;;;18.59;67.81;98339.41;4933824;29;20139;-87
2022/06/21 07:14:21;;;;;;;22.70;12.15;;;;;;;18.71;68.78;98350.94;4910942;29;20051;-86
2022/06/21 07:16:54;;;;;;;28.17;12.43;;;;;;;18.42;69.77;98304.97;4934126;29;20043;-87
2022/06/21 07:19:21;;;;;;;27.30;12.10;;;;;;;18.67;68.76;98344.56;4915480;29;20046;-85
2022/06/21 07:21:49;;;;;;;32.30;12.77;;;;;;;18.56;68.46;98321.59;4921249;29;20042;-87
2022/06/21 07:24:17;;;;;;;37.58;13.18;;;;;;;18.58;70.09;98327.56;4918159;29;20062;-87
2022/06/21 07:26:55;;;;;;;28.92;12.13;;;;;;;18.70;67.42;98329.94;4953323;29;20039;-86
2022/06/21 07:30:02;;;;;;;56.80;16.48;;;;;;;18.69;68.70;98322.84;4945318;29;20421;-87
2022/06/21 07:32:36;;;;;;;45.05;13.32;;;;;;;18.52;67.47;98295.91;4941770;29;20043;-90
2022/06/21 07:35:35;;;;;;;36.15;13.82;;;;;;;18.58;69.90;98310.94;4918040;29;20563;-88
2022/06/21 07:38:14;;;;;;;30.77;11.88;;;;;;;18.50;70.02;98307.34;4878698;29;20107;-88
2022/06/21 07:40:47;;;;;;;26.73;11.55;;;;;;;18.68;67.42;98329.56;4876409;29;20104;-88
2022/06/21 07:43:22;;;;;;;30.17;11.90;;;;;;;18.37;68.45;98289.50;4860772;29;20159;-90
2022/06/21 07:45:55;;;;;;;25.90;12.53;;;;;;;18.60;68.34;98316.88;4894627;29;20044;-84
2022/06/21 07:48:27;;;;;;;37.00;13.55;;;;;;;18.72;66.99;98329.59;4863328;29;20332;-90
2022/06/21 07:51:03;;;;;;;39.13;14.07;;;;;;;18.60;68.83;98316.06;4877721;29;20041;-88
2022/06/21 07:53:35;;;;;;;47.83;14.50;;;;;;;18.40;69.18;98280.44;4869546;29;20086;-87
2022/06/21 07:56:25;;;;;;;34.53;14.18;;;;;;;18.61;69.44;98289.97;4878880;29;20088;-86
2022/06/21 07:59:00;;;;;;;51.88;15.68;;;;;;;18.65;68.58;98294.34;4866132;29;20074;-90
2022/06/21 08:07:45;;;;;;;21.45;9.02;;;;;;;18.71;65.91;98290.03;4844546;29;20063;-89
2022/06/21 08:10:19;;;;;;;28.25;9.80;;;;;;;18.94;67.96;98325.69;4872146;29;20578;-87
2022/06/21 08:12:47;;;;;;;29.00;11.75;;;;;;;18.74;67.06;98280.16;4869410;29;20052;-87
2022/06/21 08:15:14;;;;;;;26.02;11.82;;;;;;;18.81;67.22;98301.50;4919109;29;20118;-86
2022/06/21 08:18:04;;;;;;;29.50;11.90;;;;;;;18.83;65.52;98291.63;4914676;29;20186;-84
2022/06/21 08:20:42;;;;;;;26.95;12.77;;;;;;;19.09;67.08;98323.72;4921287;29;20044;-89
2022/06/21 08:23:23;;;;;;;30.15;14.50;;;;;;;19.00;64.35;98301.94;4945758;29;20451;-91
2022/06/21 08:25:59;;;;;;;27.90;13.15;;;;;;;19.15;64.65;98313.84;4932000;29;20063;-86
2022/06/21 08:28:34;;;;;;;26.17;12.02;;;;;;;19.28;66.91;98332.84;4940608;29;20039;-88
2022/06/21 08:31:13;;;;;;;31.17;11.32;;;;;;;19.21;65.28;98330.88;4939454;29;20041;-89
2022/06/21 08:33:44;;;;;;;24.30;9.68;;;;;;;19.26;66.51;98324.94;4952809;29;20500;-88
2022/06/21 08:36:22;;;;;;;23.67;8.98;;;;;;;18.95;65.73;98274.66;4955721;29;20043;-93
2022/06/21 08:39:17;;;;;;;38.08;8.00;;;;;;;19.26;63.91;98319.38;4946638;29;20054;-84
2022/06/21 08:42:11;;;;;;;48.13;10.33;;;;;;;19.26;64.20;98313.84;4924807;29;20069;-88
2022/06/21 08:48:36;;;;;;;39.00;10.48;;;;;;;19.22;64.93;98307.50;4942743;29;20133;-89
2022/06/21 08:51:53;;;;;;;35.00;9.88;;;;;;;19.15;62.82;98302.75;4942747;29;20043;-89
2022/06/21 08:54:27;;;;;;;25.08;10.02;;;;;;;19.09;64.38;98309.09;4909596;29;20047;-89
2022/06/21 08:57:03;;;;;;;27.02;8.52;;;;;;;18.82;61.32;98269.91;4936271;29;20079;-95
2022/06/21 08:59:51;;;;;;;;;;;;;;;18.97;64.43;98313.84;4937339;29;20036;-93
2022/06/21 09:02:59;;;;;;;29.52;12.23;;;;;;;18.88;63.51;98313.41;4942189;29;19923;-93
2022/06/21 09:05:37;;;;;;;77.95;15.48;;;;;;;18.81;64.85;98310.63;4931424;29;20046;-86
2022/06/21 09:08:18;;;;;;;40.03;15.48;;;;;;;18.75;65.40;98310.22;4938370;29;20040;-86
2022/06/21 09:10:56;;;;;;;36.50;13.95;;;;;;;18.76;66.83;98305.47;4922493;29;20518;-89
2022/06/21 09:13:34;;;;;;;47.63;15.18;;;;;;;18.77;67.45;98309.81;4923916;29;20138;-93
2022/06/21 09:16:11;;;;;;;40.35;15.20;;;;;;;18.78;66.00;98314.19;4934698;29;20040;-88
2022/06/21 09:18:56;;;;;;;46.58;15.82;;;;;;;18.73;67.43;98314.56;4919402;29;20071;-84
2022/06/21 09:22:08;;;;;;;42.47;15.27;;;;;;;18.72;65.73;98315.75;4939651;29;20043;-90
2022/06/21 09:24:39;;;;;;;37.63;15.18;;;;;;;18.67;67.44;98313.31;4912079;29;20904;-88
2022/06/21 09:27:25;;;;;;;117.07;21.30;;;;;;;18.53;68.13;98289.97;4923640;29;20193;-92
2022/06/21 09:30:23;;;;;;;116.18;21.98;;;;;;;18.66;65.46;98322.81;4911971;29;20039;-90
2022/06/21 09:33:08;;;;;;;98.45;20.83;;;;;;;18.67;64.81;98324.41;4939718;29;20079;-88
2022/06/21 09:35:56;;;;;;;46.53;14.33;;;;;;;18.62;63.59;98313.72;4938576;29;20086;-91
2022/06/21 09:38:41;;;;;;;64.88;15.27;;;;;;;18.61;65.15;98314.88;4928760;29;20047;-89
2022/06/21 09:41:33;;;;;;;57.60;15.20;;;;;;;18.55;63.60;98312.50;4944546;29;20054;-87
2022/06/21 09:44:21;;;;;;;33.47;12.02;;;;;;;18.54;65.57;98319.25;4935743;28;20048;-86
2022/06/21 09:47:00;;;;;;;31.23;14.65;;;;;;;18.31;63.82;98296.63;4939516;29;20036;-90
2022/06/21 09:49:29;;;;;;;31.42;14.32;;;;;;;18.45;64.42;98312.50;4943988;29;20082;-93
2022/06/21 09:52:30;;;;;;;38.88;13.60;;;;;;;18.36;62.67;98307.31;4928035;29;20050;-87
2022/06/21 09:55:24;;;;;;;24.85;11.50;;;;;;;18.16;62.97;98290.22;4926597;29;20154;-94
2022/06/21 09:58:12;;;;;;;44.63;12.15;;;;;;;18.39;64.12;98303.75;4936294;29;20047;-87
2022/06/21 10:01:03;;;;;;;21.63;9.50;;;;;;;18.42;63.79;98307.72;4928128;29;20116;-88
2022/06/21 10:03:46;;;;;;;39.28;11.00;;;;;;;18.43;64.41;98310.09;4941862;29;20074;-93
2022/06/21 10:06:29;;;;;;;31.17;11.05;;;;;;;18.37;62.95;98311.66;4936972;29;20095;-86
2022/06/21 10:09:38;;;;;;;25.52;12.18;;;;;;;18.20;63.03;98284.72;4940335;29;20043;-86
2022/06/21 10:12:40;;;;;;;29.77;12.50;;;;;;;18.31;64.60;98307.69;4903339;29;20070;-90
2022/06/21 10:15:47;;;;;;;32.90;11.85;;;;;;;18.39;63.21;98320.34;4910746;29;20039;-90
2022/06/21 10:18:53;;;;;;;23.92;11.23;;;;;;;18.36;66.09;98320.34;4819688;29;20130;-85
2022/06/21 10:21:19;;;;;;;35.22;11.55;;;;;;;18.39;64.27;98317.59;4930629;29;20043;-94
2022/06/21 10:24:23;;;;;;;30.83;12.32;;;;;;;18.53;66.66;98314.06;4929410;29;20535;-96
2022/06/21 10:27:17;;;;;;;29.85;12.20;;;;;;;18.59;67.46;98311.75;4942704;29;20175;-92
2022/06/21 10:30:22;;;;;;;24.67;11.38;;;;;;;18.47;66.53;98285.97;4940224;29;20043;-87
2022/06/21 10:33:11;;;;;;;22.33;13.13;;;;;;;18.62;65.10;98308.97;4937657;29;20524;-86
2022/06/21 10:36:00;;;;;;;21.92;11.63;;;;;;;18.47;66.34;98282.44;4938277;29;20054;-89
2022/06/21 10:38:57;;;;;;;22.25;12.38;;;;;;;18.68;66.22;98306.63;4938133;29;20460;-85
2022/06/21 10:45:05;;;;;;;13.43;7.25;;;;;;;18.64;60.52;98306.63;4924377;29;20134;-93
2022/06/21 10:48:00;;;;;;;13.73;6.05;;;;;;;18.62;63.50;98302.66;4941147;29;20099;-89
2022/06/21 10:50:50;;;;;;;22.20;6.97;;;;;;;18.59;64.12;98304.22;4943444;29;20047;-86
2022/06/21 10:53:43;;;;;;;20.45;7.30;;;;;;;18.48;63.20;98282.06;4954886;29;20109;-85
2022/06/21 10:59:23;;;;;;;20.35;7.90;;;;;;;18.52;64.97;98282.84;4933414;29;20043;-84
2022/06/21 11:02:14;;;;;;;18.40;9.45;;;;;;;18.51;66.25;98272.19;4941543;29;20047;-92
2022/06/21 11:05:07;;;;;;;17.95;8.25;;;;;;;18.33;66.67;98227.84;4942372;29;20078;-94
2022/06/21 11:07:55;;;;;;;19.15;7.60;;;;;;;18.58;64.84;98252.81;4942178;29;20058;-86
2022/06/21 11:10:27;;;;;;;;;;;;;;;18.80;65.81;98277.78;4945510;29;20153;-93
2022/06/21 11:13:28;;;;;;;29.90;10.90;;;;;;;18.81;65.85;98271.88;4914093;29;20300;-95
2022/06/21 11:16:23;;;;;;;25.27;12.13;;;;;;;18.75;66.04;98263.16;4937661;29;20043;-94
2022/06/21 11:19:31;;;;;;;21.40;11.43;;;;;;;18.87;66.93;98270.28;4964665;28;20019;-87
2022/06/21 11:22:21;;;;;;;22.92;11.18;;;;;;;18.86;66.80;98265.16;4917495;29;20048;-87
2022/06/21 11:25:20;;;;;;;26.17;12.60;;;;;;;18.81;64.53;98255.28;4899672;29;20503;-86
2022/06/21 11:28:27;;;;;;;25.50;12.10;;;;;;;18.81;65.96;98266.34;4899152;29;20107;-90
2022/06/21 11:31:28;;;;;;;31.60;12.30;;;;;;;18.86;66.03;98279.00;4912293;29;20075;-94
2022/06/21 11:34:28;;;;;;;33.55;11.60;;;;;;;18.63;65.26;98257.97;4843437;29;20921;-91
2022/06/21 11:37:07;;;;;;;21.13;10.32;;;;;;;18.83;65.06;98294.41;4868595;29;20091;-93
2022/06/21 11:39:36;;;;;;;26.27;10.57;;;;;;;18.84;64.53;98292.44;4915774;29;20044;-93
2022/06/21 11:42:17;;;;;;;29.67;10.20;;;;;;;18.72;66.12;98275.03;4902037;29;20150;-90
2022/06/21 11:45:14;;;;;;;31.50;10.85;;;;;;;18.64;65.43;98267.06;4909488;29;20623;-86
2022/06/21 11:47:57;;;;;;;29.67;11.35;;;;;;;18.65;65.37;98268.66;4886668;29;20048;-92
2022/06/21 11:50:27;;;;;;;26.33;10.88;;;;;;;18.83;64.33;98291.63;4905229;29;20092;-93
2022/06/21 11:53:24;;;;;;;30.77;11.68;;;;;;;18.85;64.48;98289.28;4931488;29;20051;-91
2022/06/21 11:56:32;;;;;;;29.77;11.48;;;;;;;18.69;64.68;98269.44;4937496;29;20135;-90
2022/06/21 11:59:12;;;;;;;22.42;11.52;;;;;;;18.87;64.33;98278.59;4934914;29;20055;-91
2022/06/21 12:02:01;;;;;;;33.05;11.95;;;;;;;18.89;63.84;98280.97;4950324;29;20120;-90
2022/06/21 12:05:01;;;;;;;28.45;11.80;;;;;;;18.95;63.76;98288.50;4950623;29;20043;-89
2022/06/21 12:08:02;;;;;;;39.83;14.00;;;;;;;19.02;63.73;98288.50;4923219;29;20039;-94
2022/06/21 12:10:45;;;;;;;57.25;14.85;;;;;;;18.99;67.18;98269.91;4919241;29;20074;-91
2022/06/21 12:13:39;;;;;;;35.20;12.25;;;;;;;19.16;64.10;98275.84;4939556;29;20118;-85
2022/06/21 12:16:28;;;;;;;39.90;13.27;;;;;;;19.22;63.86;98271.50;4926568;29;20567;-85
2022/06/21 12:19:16;;;;;;;31.75;14.15;;;;;;;19.18;63.22;98249.34;4937460;29;20663;-85
2022/06/21 12:21:58;;;;;;;26.05;13.00;;;;;;;19.31;62.89;98260.81;4936784;29;20054;-86
2022/06/21 12:24:26;;;;;;;32.35;14.25;;;;;;;19.43;64.03;98262.38;4954660;29;20031;-86
2022/06/21 12:26:57;;;;;;;31.27;14.85;;;;;;;19.28;63.36;98233.91;4937351;29;20049;-84
2022/06/21 12:29:25;;;;;;;32.67;15.15;;;;;;;19.40;64.28;98250.13;4954850;29;20042;-85
2022/06/21 12:31:58;;;;;;;29.70;13.73;;;;;;;19.40;66.33;98229.91;4937653;29;20039;-87
2022/06/21 12:34:33;;;;;;;45.88;16.02;;;;;;;19.58;65.44;98247.31;4947064;29;20043;-85
2022/06/21 12:37:13;;;;;;;31.50;13.18;;;;;;;19.55;64.08;98239.00;4949819;29;20090;-87
2022/06/21 12:39:42;;;;;;;25.92;14.20;;;;;;;19.56;65.31;98224.72;4954584;28;20243;-86
2022/06/21 12:42:40;;;;;;;45.95;15.10;;;;;;;19.69;65.45;98253.63;4953658;29;20063;-87